sensor_id;sensor_type;location;lat;lon;timestamp;temperature;humidity
65637;DHT22;52327;42.622;23.316;2023-12-20T00:00:58;2.11;85.96
65637;DHT22;52327;42.622;23.316;2023-12-20T00:03:25;2.12;82.48
65637;DHT22;52327;42.622;23.316;2023-12-20T00:05:51;2.02;86.07
65637;DHT22;52327;42.622;23.316;2023-12-20T00:08:17;1.97;87.37
65637;DHT22;52327;42.622;23.316;2023-12-20T00:10:44;1.99;85.06
65637;DHT22;52327;42.622;23.316;2023-12-20T00:13:17;1.98;86.92
65637;DHT22;52327;42.622;23.316;2023-12-20T00:15:45;1.91;87.89
65637;DHT22;52327;42.622;23.316;2023-12-20T00:18:11;2.02;86.39
65637;DHT22;52327;42.622;23.316;2023-12-20T00:20:36;2.12;82.38
65637;DHT22;52327;42.622;23.316;2023-12-20T00:23:02;2.08;85.83
65637;DHT22;52327;42.622;23.316;2023-12-20T00:25:34;2.22;78.70
65637;DHT22;52327;42.622;23.316;2023-12-20T00:28:00;2.12;82.74
65637;DHT22;52327;42.622;23.316;2023-12-20T00:30:26;2.14;79.62
65637;DHT22;52327;42.622;23.316;2023-12-20T00:32:53;1.91;86.70
65637;DHT22;52327;42.622;23.316;2023-12-20T00:35:21;1.81;88.20
65637;DHT22;52327;42.622;23.316;2023-12-20T00:37:47;1.81;87.86
65637;DHT22;52327;42.622;23.316;2023-12-20T00:40:15;1.87;88.25
65637;DHT22;52327;42.622;23.316;2023-12-20T00:42:41;1.98;85.99
65637;DHT22;52327;42.622;23.316;2023-12-20T00:45:06;1.97;87.57
65637;DHT22;52327;42.622;23.316;2023-12-20T00:47:32;2.01;86.65
65637;DHT22;52327;42.622;23.316;2023-12-20T00:49:58;2.05;85.43
65637;DHT22;52327;42.622;23.316;2023-12-20T00:52:23;1.98;87.36
65637;DHT22;52327;42.622;23.316;2023-12-20T00:54:51;2.14;85.97
65637;DHT22;52327;42.622;23.316;2023-12-20T00:57:17;2.02;87.40
65637;DHT22;52327;42.622;23.316;2023-12-20T00:59:42;2.07;87.60
65637;DHT22;52327;42.622;23.316;2023-12-20T01:02:08;2.21;82.63
65637;DHT22;52327;42.622;23.316;2023-12-20T01:04:36;2.18;85.98
65637;DHT22;52327;42.622;23.316;2023-12-20T01:07:04;2.15;86.93
65637;DHT22;52327;42.622;23.316;2023-12-20T01:09:29;2.15;87.13
65637;DHT22;52327;42.622;23.316;2023-12-20T01:11:54;2.08;87.74
65637;DHT22;52327;42.622;23.316;2023-12-20T01:14:20;2.15;86.56
65637;DHT22;52327;42.622;23.316;2023-12-20T01:16:45;2.17;87.05
65637;DHT22;52327;42.622;23.316;2023-12-20T01:19:11;2.15;86.83
65637;DHT22;52327;42.622;23.316;2023-12-20T01:21:37;2.14;85.28
65637;DHT22;52327;42.622;23.316;2023-12-20T01:24:04;2.26;79.93
65637;DHT22;52327;42.622;23.316;2023-12-20T01:26:32;2.19;82.75
65637;DHT22;52327;42.622;23.316;2023-12-20T01:29:01;2.09;84.29
65637;DHT22;52327;42.622;23.316;2023-12-20T01:31:26;1.93;86.03
65637;DHT22;52327;42.622;23.316;2023-12-20T01:33:52;1.84;86.60
65637;DHT22;52327;42.622;23.316;2023-12-20T01:36:18;1.73;87.45
65637;DHT22;52327;42.622;23.316;2023-12-20T01:38:43;1.64;88.49
65637;DHT22;52327;42.622;23.316;2023-12-20T01:41:09;1.81;87.04
65637;DHT22;52327;42.622;23.316;2023-12-20T01:43:34;1.84;86.11
65637;DHT22;52327;42.622;23.316;2023-12-20T01:46:00;1.85;86.19
65637;DHT22;52327;42.622;23.316;2023-12-20T01:48:26;1.82;87.58
65637;DHT22;52327;42.622;23.316;2023-12-20T01:50:53;1.91;86.46
65637;DHT22;52327;42.622;23.316;2023-12-20T01:53:24;1.88;84.80
65637;DHT22;52327;42.622;23.316;2023-12-20T01:55:58;1.78;86.50
65637;DHT22;52327;42.622;23.316;2023-12-20T01:58:24;1.82;85.51
65637;DHT22;52327;42.622;23.316;2023-12-20T02:00:50;1.85;84.51
65637;DHT22;52327;42.622;23.316;2023-12-20T02:03:16;1.82;82.83
65637;DHT22;52327;42.622;23.316;2023-12-20T02:05:43;1.73;85.21
65637;DHT22;52327;42.622;23.316;2023-12-20T02:08:09;1.73;86.91
65637;DHT22;52327;42.622;23.316;2023-12-20T02:10:35;1.71;86.65
65637;DHT22;52327;42.622;23.316;2023-12-20T02:13:03;1.64;87.95
65637;DHT22;52327;42.622;23.316;2023-12-20T02:15:29;1.78;83.99
65637;DHT22;52327;42.622;23.316;2023-12-20T02:17:55;1.80;85.49
65637;DHT22;52327;42.622;23.316;2023-12-20T02:20:21;1.93;81.56
65637;DHT22;52327;42.622;23.316;2023-12-20T02:22:46;1.82;85.16
65637;DHT22;52327;42.622;23.316;2023-12-20T02:25:11;1.71;85.93
65637;DHT22;52327;42.622;23.316;2023-12-20T02:27:38;1.71;85.75
65637;DHT22;52327;42.622;23.316;2023-12-20T02:30:04;1.74;84.21
65637;DHT22;52327;42.622;23.316;2023-12-20T02:32:30;1.84;81.98
65637;DHT22;52327;42.622;23.316;2023-12-20T02:34:56;1.80;84.82
65637;DHT22;52327;42.622;23.316;2023-12-20T02:37:21;1.75;85.91
65637;DHT22;52327;42.622;23.316;2023-12-20T02:39:47;1.74;85.71
65637;DHT22;52327;42.622;23.316;2023-12-20T02:42:12;1.88;82.35
65637;DHT22;52327;42.622;23.316;2023-12-20T02:44:38;1.71;85.94
65637;DHT22;52327;42.622;23.316;2023-12-20T02:47:03;1.61;87.05
65637;DHT22;52327;42.622;23.316;2023-12-20T02:49:29;1.60;87.85
65637;DHT22;52327;42.622;23.316;2023-12-20T02:51:54;1.67;87.68
65637;DHT22;52327;42.622;23.316;2023-12-20T02:54:20;1.84;84.51
65637;DHT22;52327;42.622;23.316;2023-12-20T02:56:45;1.73;86.68
65637;DHT22;52327;42.622;23.316;2023-12-20T02:59:11;1.68;86.88
65637;DHT22;52327;42.622;23.316;2023-12-20T03:01:44;1.81;80.63
65637;DHT22;52327;42.622;23.316;2023-12-20T03:04:11;1.60;86.22
65637;DHT22;52327;42.622;23.316;2023-12-20T03:06:44;1.57;86.03
65637;DHT22;52327;42.622;23.316;2023-12-20T03:09:10;1.51;87.05
65637;DHT22;52327;42.622;23.316;2023-12-20T03:11:35;1.50;87.89
65637;DHT22;52327;42.622;23.316;2023-12-20T03:14:01;1.61;86.00
65637;DHT22;52327;42.622;23.316;2023-12-20T03:16:29;1.63;85.26
65637;DHT22;52327;42.622;23.316;2023-12-20T03:18:56;1.54;86.19
65637;DHT22;52327;42.622;23.316;2023-12-20T03:21:22;1.57;85.82
65637;DHT22;52327;42.622;23.316;2023-12-20T03:23:47;1.49;87.58
65637;DHT22;52327;42.622;23.316;2023-12-20T03:26:13;1.53;87.43
65637;DHT22;52327;42.622;23.316;2023-12-20T03:28:39;1.51;86.63
65637;DHT22;52327;42.622;23.316;2023-12-20T03:31:04;1.47;87.96
65637;DHT22;52327;42.622;23.316;2023-12-20T03:33:30;1.46;88.05
65637;DHT22;52327;42.622;23.316;2023-12-20T03:35:55;1.47;87.47
65637;DHT22;52327;42.622;23.316;2023-12-20T03:38:21;1.46;82.94
65637;DHT22;52327;42.622;23.316;2023-12-20T03:40:49;1.44;86.48
65637;DHT22;52327;42.622;23.316;2023-12-20T03:43:15;1.40;86.87
65637;DHT22;52327;42.622;23.316;2023-12-20T03:45:41;1.40;85.93
65637;DHT22;52327;42.622;23.316;2023-12-20T03:48:07;1.50;84.06
65637;DHT22;52327;42.622;23.316;2023-12-20T03:50:34;1.44;84.86
65637;DHT22;52327;42.622;23.316;2023-12-20T03:52:59;1.44;85.31
65637;DHT22;52327;42.622;23.316;2023-12-20T03:55:25;1.43;82.87
65637;DHT22;52327;42.622;23.316;2023-12-20T03:57:50;1.40;84.99
65637;DHT22;52327;42.622;23.316;2023-12-20T04:00:15;1.42;84.14
65637;DHT22;52327;42.622;23.316;2023-12-20T04:02:41;1.36;85.91
65637;DHT22;52327;42.622;23.316;2023-12-20T04:05:08;1.30;86.42
65637;DHT22;52327;42.622;23.316;2023-12-20T04:07:35;1.23;87.07
65637;DHT22;52327;42.622;23.316;2023-12-20T04:10:01;1.26;87.53
65637;DHT22;52327;42.622;23.316;2023-12-20T04:12:29;1.23;87.11
65637;DHT22;52327;42.622;23.316;2023-12-20T04:14:57;1.26;87.25
65637;DHT22;52327;42.622;23.316;2023-12-20T04:17:25;1.29;85.92
65637;DHT22;52327;42.622;23.316;2023-12-20T04:19:57;1.15;88.02
65637;DHT22;52327;42.622;23.316;2023-12-20T04:22:24;1.09;89.42
65637;DHT22;52327;42.622;23.316;2023-12-20T04:24:50;1.10;89.47
65637;DHT22;52327;42.622;23.316;2023-12-20T04:27:24;1.29;87.22
65637;DHT22;52327;42.622;23.316;2023-12-20T04:29:50;1.25;87.44
65637;DHT22;52327;42.622;23.316;2023-12-20T04:32:15;1.44;82.03
65637;DHT22;52327;42.622;23.316;2023-12-20T04:34:43;1.33;85.18
65637;DHT22;52327;42.622;23.316;2023-12-20T04:37:09;1.33;84.41
65637;DHT22;52327;42.622;23.316;2023-12-20T04:39:34;1.30;86.82
65637;DHT22;52327;42.622;23.316;2023-12-20T04:41:59;1.26;88.30
65637;DHT22;52327;42.622;23.316;2023-12-20T04:44:25;1.29;88.57
65637;DHT22;52327;42.622;23.316;2023-12-20T04:46:54;1.29;89.19
65637;DHT22;52327;42.622;23.316;2023-12-20T04:49:21;1.39;88.21
65637;DHT22;52327;42.622;23.316;2023-12-20T04:51:47;1.47;87.39
65637;DHT22;52327;42.622;23.316;2023-12-20T04:54:12;1.42;86.92
65637;DHT22;52327;42.622;23.316;2023-12-20T04:56:38;1.27;87.99
65637;DHT22;52327;42.622;23.316;2023-12-20T04:59:04;1.35;89.02
65637;DHT22;52327;42.622;23.316;2023-12-20T05:01:29;1.43;88.46
65637;DHT22;52327;42.622;23.316;2023-12-20T05:03:55;1.46;87.83
65637;DHT22;52327;42.622;23.316;2023-12-20T05:06:20;1.43;88.40
65637;DHT22;52327;42.622;23.316;2023-12-20T05:08:46;1.49;87.85
65637;DHT22;52327;42.622;23.316;2023-12-20T05:11:11;1.57;85.51
65637;DHT22;52327;42.622;23.316;2023-12-20T05:13:39;1.46;87.73
65637;DHT22;52327;42.622;23.316;2023-12-20T05:16:05;1.44;87.84
65637;DHT22;52327;42.622;23.316;2023-12-20T05:18:30;1.39;84.70
65637;DHT22;52327;42.622;23.316;2023-12-20T05:20:56;1.23;87.64
65637;DHT22;52327;42.622;23.316;2023-12-20T05:23:21;1.25;88.99
65637;DHT22;52327;42.622;23.316;2023-12-20T05:25:47;1.25;89.20
65637;DHT22;52327;42.622;23.316;2023-12-20T05:28:12;1.32;87.87
65637;DHT22;52327;42.622;23.316;2023-12-20T05:30:38;1.30;88.20
65637;DHT22;52327;42.622;23.316;2023-12-20T05:33:04;1.33;88.03
65637;DHT22;52327;42.622;23.316;2023-12-20T05:35:29;1.29;88.05
65637;DHT22;52327;42.622;23.316;2023-12-20T05:37:55;1.36;87.84
65637;DHT22;52327;42.622;23.316;2023-12-20T05:40:20;1.32;88.40
65637;DHT22;52327;42.622;23.316;2023-12-20T05:42:45;1.26;89.01
65637;DHT22;52327;42.622;23.316;2023-12-20T05:45:11;1.15;88.56
65637;DHT22;52327;42.622;23.316;2023-12-20T05:47:36;1.08;89.52
65637;DHT22;52327;42.622;23.316;2023-12-20T05:50:02;1.12;89.78
65637;DHT22;52327;42.622;23.316;2023-12-20T05:52:27;1.15;89.91
65637;DHT22;52327;42.622;23.316;2023-12-20T05:54:53;1.12;89.56
65637;DHT22;52327;42.622;23.316;2023-12-20T05:57:18;1.05;90.03
65637;DHT22;52327;42.622;23.316;2023-12-20T05:59:44;1.22;84.67
65637;DHT22;52327;42.622;23.316;2023-12-20T06:02:09;1.09;88.43
65637;DHT22;52327;42.622;23.316;2023-12-20T06:04:34;1.08;89.03
65637;DHT22;52327;42.622;23.316;2023-12-20T06:07:00;0.99;89.49
65637;DHT22;52327;42.622;23.316;2023-12-20T06:09:28;0.96;89.39
65637;DHT22;52327;42.622;23.316;2023-12-20T06:11:53;0.95;89.97
65637;DHT22;52327;42.622;23.316;2023-12-20T06:14:19;1.02;89.39
65637;DHT22;52327;42.622;23.316;2023-12-20T06:16:45;1.03;87.91
65637;DHT22;52327;42.622;23.316;2023-12-20T06:19:10;1.05;89.32
65637;DHT22;52327;42.622;23.316;2023-12-20T06:21:36;1.16;88.43
65637;DHT22;52327;42.622;23.316;2023-12-20T06:24:01;1.15;88.50
65637;DHT22;52327;42.622;23.316;2023-12-20T06:26:27;1.19;88.34
65637;DHT22;52327;42.622;23.316;2023-12-20T06:28:52;1.25;88.99
65637;DHT22;52327;42.622;23.316;2023-12-20T06:31:17;1.25;89.84
65637;DHT22;52327;42.622;23.316;2023-12-20T06:33:43;1.42;87.49
65637;DHT22;52327;42.622;23.316;2023-12-20T06:36:12;1.49;86.81
65637;DHT22;52327;42.622;23.316;2023-12-20T06:38:41;1.60;87.56
65637;DHT22;52327;42.622;23.316;2023-12-20T06:41:07;1.64;86.35
65637;DHT22;52327;42.622;23.316;2023-12-20T06:43:32;1.63;87.89
65637;DHT22;52327;42.622;23.316;2023-12-20T06:46:00;1.75;88.69
65637;DHT22;52327;42.622;23.316;2023-12-20T06:48:25;1.84;86.21
65637;DHT22;52327;42.622;23.316;2023-12-20T06:50:51;1.82;87.82
65637;DHT22;52327;42.622;23.316;2023-12-20T06:53:16;1.85;88.50
65637;DHT22;52327;42.622;23.316;2023-12-20T06:55:41;1.90;88.72
65637;DHT22;52327;42.622;23.316;2023-12-20T06:58:07;1.95;88.89
65637;DHT22;52327;42.622;23.316;2023-12-20T07:00:34;1.95;88.95
65637;DHT22;52327;42.622;23.316;2023-12-20T07:02:59;2.04;87.39
65637;DHT22;52327;42.622;23.316;2023-12-20T07:05:25;1.98;88.00
65637;DHT22;52327;42.622;23.316;2023-12-20T07:07:50;2.02;88.25
65637;DHT22;52327;42.622;23.316;2023-12-20T07:10:16;2.02;88.78
65637;DHT22;52327;42.622;23.316;2023-12-20T07:12:41;2.07;88.93
65637;DHT22;52327;42.622;23.316;2023-12-20T07:15:07;2.18;87.75
65637;DHT22;52327;42.622;23.316;2023-12-20T07:17:33;2.09;88.19
65637;DHT22;52327;42.622;23.316;2023-12-20T07:19:59;2.12;88.70
65637;DHT22;52327;42.622;23.316;2023-12-20T07:22:28;2.17;88.89
65637;DHT22;52327;42.622;23.316;2023-12-20T07:24:54;2.01;87.81
65637;DHT22;52327;42.622;23.316;2023-12-20T07:27:19;2.17;89.21
65637;DHT22;52327;42.622;23.316;2023-12-20T07:29:45;2.26;89.16
65637;DHT22;52327;42.622;23.316;2023-12-20T07:32:10;2.28;89.06
65637;DHT22;52327;42.622;23.316;2023-12-20T07:34:36;2.21;89.14
65637;DHT22;52327;42.622;23.316;2023-12-20T07:37:01;2.17;88.96
65637;DHT22;52327;42.622;23.316;2023-12-20T07:39:26;2.25;89.32
65637;DHT22;52327;42.622;23.316;2023-12-20T07:41:52;2.43;89.11
65637;DHT22;52327;42.622;23.316;2023-12-20T07:44:17;2.42;88.29
65637;DHT22;52327;42.622;23.316;2023-12-20T07:46:42;2.45;88.79
65637;DHT22;52327;42.622;23.316;2023-12-20T07:49:08;2.49;88.95
65637;DHT22;52327;42.622;23.316;2023-12-20T07:51:33;2.56;89.03
65637;DHT22;52327;42.622;23.316;2023-12-20T07:53:59;2.45;88.23
65637;DHT22;52327;42.622;23.316;2023-12-20T07:56:24;2.59;88.94
65637;DHT22;52327;42.622;23.316;2023-12-20T07:58:50;2.72;88.90
65637;DHT22;52327;42.622;23.316;2023-12-20T08:01:15;2.86;88.81
65637;DHT22;52327;42.622;23.316;2023-12-20T08:03:41;2.96;88.60
65637;DHT22;52327;42.622;23.316;2023-12-20T08:06:06;3.07;88.52
65637;DHT22;52327;42.622;23.316;2023-12-20T08:08:32;3.13;88.16
65637;DHT22;52327;42.622;23.316;2023-12-20T08:10:57;3.11;87.31
65637;DHT22;52327;42.622;23.316;2023-12-20T08:13:25;3.25;87.68
65637;DHT22;52327;42.622;23.316;2023-12-20T08:15:51;3.21;86.53
65637;DHT22;52327;42.622;23.316;2023-12-20T08:18:19;3.24;86.66
65637;DHT22;52327;42.622;23.316;2023-12-20T08:20:48;3.39;87.18
65637;DHT22;52327;42.622;23.316;2023-12-20T08:23:13;3.55;87.10
65637;DHT22;52327;42.622;23.316;2023-12-20T08:25:39;3.69;86.97
65637;DHT22;52327;42.622;23.316;2023-12-20T08:28:04;3.75;86.67
65637;DHT22;52327;42.622;23.316;2023-12-20T08:30:30;3.85;86.08
65637;DHT22;52327;42.622;23.316;2023-12-20T08:32:56;3.99;86.04
65637;DHT22;52327;42.622;23.316;2023-12-20T08:35:21;3.95;85.20
65637;DHT22;52327;42.622;23.316;2023-12-20T08:37:47;4.00;85.67
65637;DHT22;52327;42.622;23.316;2023-12-20T08:40:12;4.03;85.55
65637;DHT22;52327;42.622;23.316;2023-12-20T08:42:38;3.93;84.96
65637;DHT22;52327;42.622;23.316;2023-12-20T08:45:04;3.96;84.69
65637;DHT22;52327;42.622;23.316;2023-12-20T08:47:30;4.06;85.27
65637;DHT22;52327;42.622;23.316;2023-12-20T08:49:55;4.10;85.09
65637;DHT22;52327;42.622;23.316;2023-12-20T08:52:23;4.21;85.29
65637;DHT22;52327;42.622;23.316;2023-12-20T08:54:49;4.09;84.26
65637;DHT22;52327;42.622;23.316;2023-12-20T08:57:19;3.97;84.06
65637;DHT22;52327;42.622;23.316;2023-12-20T08:59:44;3.93;83.20
65637;DHT22;52327;42.622;23.316;2023-12-20T09:02:10;3.99;84.07
65637;DHT22;52327;42.622;23.316;2023-12-20T09:04:35;4.06;84.43
65637;DHT22;52327;42.622;23.316;2023-12-20T09:07:01;4.13;84.86
65637;DHT22;52327;42.622;23.316;2023-12-20T09:09:26;4.21;84.89
65637;DHT22;52327;42.622;23.316;2023-12-20T09:11:52;4.33;84.86
65637;DHT22;52327;42.622;23.316;2023-12-20T09:14:17;3.89;82.20
65637;DHT22;52327;42.622;23.316;2023-12-20T09:16:42;3.95;84.62
65637;DHT22;52327;42.622;23.316;2023-12-20T09:19:08;4.14;84.06
65637;DHT22;52327;42.622;23.316;2023-12-20T09:21:33;4.21;84.40
65637;DHT22;52327;42.622;23.316;2023-12-20T09:23:58;4.27;82.98
65637;DHT22;52327;42.622;23.316;2023-12-20T09:26:24;4.53;84.03
65637;DHT22;52327;42.622;23.316;2023-12-20T09:28:49;4.71;84.01
65637;DHT22;52327;42.622;23.316;2023-12-20T09:31:15;4.71;83.45
65637;DHT22;52327;42.622;23.316;2023-12-20T09:33:40;4.77;83.02
65637;DHT22;52327;42.622;23.316;2023-12-20T09:36:05;4.75;82.00
65637;DHT22;52327;42.622;23.316;2023-12-20T09:38:31;4.91;82.09
65637;DHT22;52327;42.622;23.316;2023-12-20T09:40:56;5.12;82.26
65637;DHT22;52327;42.622;23.316;2023-12-20T09:43:24;5.20;82.44
65637;DHT22;52327;42.622;23.316;2023-12-20T09:45:53;5.30;82.42
65637;DHT22;52327;42.622;23.316;2023-12-20T09:48:19;5.15;81.76
65637;DHT22;52327;42.622;23.316;2023-12-20T09:50:45;5.26;82.38
65637;DHT22;52327;42.622;23.316;2023-12-20T09:53:15;5.36;82.08
65637;DHT22;52327;42.622;23.316;2023-12-20T09:55:41;5.25;80.71
65637;DHT22;52327;42.622;23.316;2023-12-20T09:58:07;5.30;80.95
65637;DHT22;52327;42.622;23.316;2023-12-20T10:00:34;5.53;81.66
65637;DHT22;52327;42.622;23.316;2023-12-20T10:03:00;5.60;81.99
65637;DHT22;52327;42.622;23.316;2023-12-20T10:05:27;5.67;82.02
65637;DHT22;52327;42.622;23.316;2023-12-20T10:07:53;5.46;79.92
65637;DHT22;52327;42.622;23.316;2023-12-20T10:10:18;5.11;79.55
65637;DHT22;52327;42.622;23.316;2023-12-20T10:13:10;4.95;78.42
65637;DHT22;52327;42.622;23.316;2023-12-20T10:15:36;4.85;82.15
65637;DHT22;52327;42.622;23.316;2023-12-20T10:18:03;4.95;80.36
65637;DHT22;52327;42.622;23.316;2023-12-20T10:20:29;5.13;81.78
65637;DHT22;52327;42.622;23.316;2023-12-20T10:22:56;5.25;81.57
65637;DHT22;52327;42.622;23.316;2023-12-20T10:25:21;4.91;80.34
65637;DHT22;52327;42.622;23.316;2023-12-20T10:27:47;5.02;82.39
65637;DHT22;52327;42.622;23.316;2023-12-20T10:30:13;5.00;82.13
65637;DHT22;52327;42.622;23.316;2023-12-20T10:32:39;5.22;82.73
65637;DHT22;52327;42.622;23.316;2023-12-20T10:35:06;5.56;79.26
65637;DHT22;52327;42.622;23.316;2023-12-20T10:37:35;5.60;78.95
65637;DHT22;52327;42.622;23.316;2023-12-20T10:40:03;5.49;78.29
65637;DHT22;52327;42.622;23.316;2023-12-20T10:42:29;5.08;80.82
65637;DHT22;52327;42.622;23.316;2023-12-20T10:44:56;5.11;82.04
65637;DHT22;52327;42.622;23.316;2023-12-20T10:47:22;4.93;80.63
65637;DHT22;52327;42.622;23.316;2023-12-20T10:49:52;5.05;83.50
65637;DHT22;52327;42.622;23.316;2023-12-20T10:52:17;5.04;82.19
65637;DHT22;52327;42.622;23.316;2023-12-20T10:54:43;4.87;83.43
65637;DHT22;52327;42.622;23.316;2023-12-20T10:57:09;4.91;82.65
65637;DHT22;52327;42.622;23.316;2023-12-20T10:59:37;5.19;82.67
65637;DHT22;52327;42.622;23.316;2023-12-20T11:02:03;5.25;82.47
65637;DHT22;52327;42.622;23.316;2023-12-20T11:07:18;5.22;82.49
65637;DHT22;52327;42.622;23.316;2023-12-20T11:09:53;5.06;82.62
65637;DHT22;52327;42.622;23.316;2023-12-20T11:12:27;5.04;81.60
65637;DHT22;52327;42.622;23.316;2023-12-20T11:14:58;4.79;82.54
65637;DHT22;52327;42.622;23.316;2023-12-20T11:17:28;5.02;83.30
65637;DHT22;52327;42.622;23.316;2023-12-20T11:22:25;5.19;81.32
65637;DHT22;52327;42.622;23.316;2023-12-20T11:24:58;5.04;80.80
65637;DHT22;52327;42.622;23.316;2023-12-20T11:27:26;5.15;82.27
65637;DHT22;52327;42.622;23.316;2023-12-20T11:29:53;5.36;82.47
65637;DHT22;52327;42.622;23.316;2023-12-20T11:34:51;5.51;81.64
65637;DHT22;52327;42.622;23.316;2023-12-20T11:37:19;5.70;82.27
65637;DHT22;52327;42.622;23.316;2023-12-20T11:39:45;5.66;80.25
65637;DHT22;52327;42.622;23.316;2023-12-20T11:42:11;5.83;81.98
65637;DHT22;52327;42.622;23.316;2023-12-20T11:44:37;5.71;80.76
65637;DHT22;52327;42.622;23.316;2023-12-20T11:47:03;5.69;80.03
65637;DHT22;52327;42.622;23.316;2023-12-20T11:49:28;5.49;80.13
65637;DHT22;52327;42.622;23.316;2023-12-20T11:51:56;5.57;81.48
65637;DHT22;52327;42.622;23.316;2023-12-20T11:54:22;5.67;82.04
65637;DHT22;52327;42.622;23.316;2023-12-20T11:56:48;5.87;81.62
65637;DHT22;52327;42.622;23.316;2023-12-20T11:59:13;5.71;81.71
65637;DHT22;52327;42.622;23.316;2023-12-20T12:01:39;5.91;82.92
65637;DHT22;52327;42.622;23.316;2023-12-20T12:04:07;6.10;80.93
65637;DHT22;52327;42.622;23.316;2023-12-20T12:06:36;6.18;81.96
65637;DHT22;52327;42.622;23.316;2023-12-20T12:09:04;6.36;82.04
65637;DHT22;52327;42.622;23.316;2023-12-20T12:11:30;6.35;80.51
65637;DHT22;52327;42.622;23.316;2023-12-20T12:13:55;6.49;80.78
65637;DHT22;52327;42.622;23.316;2023-12-20T12:16:21;6.63;81.35
65637;DHT22;52327;42.622;23.316;2023-12-20T12:18:54;6.83;79.49
65637;DHT22;52327;42.622;23.316;2023-12-20T12:21:20;6.90;80.33
65637;DHT22;52327;42.622;23.316;2023-12-20T12:23:46;6.75;79.01
65637;DHT22;52327;42.622;23.316;2023-12-20T12:26:11;6.59;81.11
65637;DHT22;52327;42.622;23.316;2023-12-20T12:28:40;6.57;81.89
65637;DHT22;52327;42.622;23.316;2023-12-20T12:31:14;6.65;81.62
65637;DHT22;52327;42.622;23.316;2023-12-20T12:33:42;6.77;81.15
65637;DHT22;52327;42.622;23.316;2023-12-20T12:36:10;6.52;79.44
65637;DHT22;52327;42.622;23.316;2023-12-20T12:38:36;6.46;79.21
65637;DHT22;52327;42.622;23.316;2023-12-20T12:41:02;6.02;80.11
65637;DHT22;52327;42.622;23.316;2023-12-20T12:43:27;6.04;82.34
65637;DHT22;52327;42.622;23.316;2023-12-20T12:45:53;6.10;81.06
65637;DHT22;52327;42.622;23.316;2023-12-20T12:48:19;6.25;79.45
65637;DHT22;52327;42.622;23.316;2023-12-20T12:50:46;6.28;81.53
65637;DHT22;52327;42.622;23.316;2023-12-20T12:53:11;6.38;82.59
65637;DHT22;52327;42.622;23.316;2023-12-20T12:55:37;6.32;82.90
65637;DHT22;52327;42.622;23.316;2023-12-20T12:58:02;6.48;81.27
65637;DHT22;52327;42.622;23.316;2023-12-20T13:00:28;6.48;82.04
65637;DHT22;52327;42.622;23.316;2023-12-20T13:02:53;6.35;82.39
65637;DHT22;52327;42.622;23.316;2023-12-20T13:05:18;6.46;80.62
65637;DHT22;52327;42.622;23.316;2023-12-20T13:07:44;6.33;82.66
65637;DHT22;52327;42.622;23.316;2023-12-20T13:10:10;6.42;79.96
65637;DHT22;52327;42.622;23.316;2023-12-20T13:12:36;6.21;81.80
65637;DHT22;52327;42.622;23.316;2023-12-20T13:15:01;6.39;79.16
65637;DHT22;52327;42.622;23.316;2023-12-20T13:17:29;6.28;80.97
65637;DHT22;52327;42.622;23.316;2023-12-20T13:19:54;6.25;81.25
65637;DHT22;52327;42.622;23.316;2023-12-20T13:22:20;6.26;78.15
65637;DHT22;52327;42.622;23.316;2023-12-20T13:24:45;6.15;81.47
65637;DHT22;52327;42.622;23.316;2023-12-20T13:27:11;6.12;81.99
65637;DHT22;52327;42.622;23.316;2023-12-20T13:29:36;6.14;82.54
65637;DHT22;52327;42.622;23.316;2023-12-20T13:32:01;6.02;79.80
65637;DHT22;52327;42.622;23.316;2023-12-20T13:34:28;5.98;80.50
65637;DHT22;52327;42.622;23.316;2023-12-20T13:36:54;5.94;82.43
65637;DHT22;52327;42.622;23.316;2023-12-20T13:39:19;5.87;83.61
65637;DHT22;52327;42.622;23.316;2023-12-20T13:41:45;5.77;84.09
65637;DHT22;52327;42.622;23.316;2023-12-20T13:44:10;5.69;84.02
65637;DHT22;52327;42.622;23.316;2023-12-20T13:46:37;5.60;84.59
65637;DHT22;52327;42.622;23.316;2023-12-20T13:49:03;5.60;81.97
65637;DHT22;52327;42.622;23.316;2023-12-20T13:51:30;5.66;82.71
65637;DHT22;52327;42.622;23.316;2023-12-20T13:53:55;5.63;82.60
65637;DHT22;52327;42.622;23.316;2023-12-20T13:56:21;5.50;84.37
65637;DHT22;52327;42.622;23.316;2023-12-20T13:58:48;5.44;84.79
65637;DHT22;52327;42.622;23.316;2023-12-20T14:01:13;5.56;82.00
65637;DHT22;52327;42.622;23.316;2023-12-20T14:03:39;5.61;83.01
65637;DHT22;52327;42.622;23.316;2023-12-20T14:06:06;5.74;82.69
65637;DHT22;52327;42.622;23.316;2023-12-20T14:08:31;5.73;84.01
65637;DHT22;52327;42.622;23.316;2023-12-20T14:10:57;5.75;80.53
65637;DHT22;52327;42.622;23.316;2023-12-20T14:13:22;5.69;76.44
65637;DHT22;52327;42.622;23.316;2023-12-20T14:15:47;5.70;82.34
65637;DHT22;52327;42.622;23.316;2023-12-20T14:18:14;5.71;81.79
65637;DHT22;52327;42.622;23.316;2023-12-20T14:20:40;5.64;77.85
65637;DHT22;52327;42.622;23.316;2023-12-20T14:23:08;5.47;83.38
65637;DHT22;52327;42.622;23.316;2023-12-20T14:25:37;5.51;78.93
65637;DHT22;52327;42.622;23.316;2023-12-20T14:28:03;5.78;72.72
65637;DHT22;52327;42.622;23.316;2023-12-20T14:30:29;5.63;81.60
65637;DHT22;52327;42.622;23.316;2023-12-20T14:32:54;5.44;81.70
65637;DHT22;52327;42.622;23.316;2023-12-20T14:35:20;5.23;83.49
65637;DHT22;52327;42.622;23.316;2023-12-20T14:37:45;5.33;78.34
65637;DHT22;52327;42.622;23.316;2023-12-20T14:40:11;5.29;81.59
65637;DHT22;52327;42.622;23.316;2023-12-20T14:42:41;5.23;79.54
65637;DHT22;52327;42.622;23.316;2023-12-20T14:45:07;4.89;80.59
65637;DHT22;52327;42.622;23.316;2023-12-20T14:47:32;4.87;82.46
65637;DHT22;52327;42.622;23.316;2023-12-20T14:49:58;5.15;80.82
65637;DHT22;52327;42.622;23.316;2023-12-20T14:52:23;5.13;79.94
65637;DHT22;52327;42.622;23.316;2023-12-20T14:54:49;5.09;83.45
65637;DHT22;52327;42.622;23.316;2023-12-20T14:57:14;5.12;80.67
65637;DHT22;52327;42.622;23.316;2023-12-20T14:59:40;4.87;83.12
65637;DHT22;52327;42.622;23.316;2023-12-20T15:02:06;4.82;84.68
65637;DHT22;52327;42.622;23.316;2023-12-20T15:04:31;4.79;84.49
65637;DHT22;52327;42.622;23.316;2023-12-20T15:06:57;4.62;84.45
65637;DHT22;52327;42.622;23.316;2023-12-20T15:09:22;4.74;83.62
65637;DHT22;52327;42.622;23.316;2023-12-20T15:11:49;4.69;83.74
65637;DHT22;52327;42.622;23.316;2023-12-20T15:14:15;4.69;81.42
65637;DHT22;52327;42.622;23.316;2023-12-20T15:16:44;4.61;84.57
65637;DHT22;52327;42.622;23.316;2023-12-20T15:19:11;4.67;81.09
65637;DHT22;52327;42.622;23.316;2023-12-20T15:21:36;4.60;84.75
65637;DHT22;52327;42.622;23.316;2023-12-20T15:24:06;4.48;83.20
65637;DHT22;52327;42.622;23.316;2023-12-20T15:26:38;4.41;82.90
65637;DHT22;52327;42.622;23.316;2023-12-20T15:29:04;4.40;84.96
65637;DHT22;52327;42.622;23.316;2023-12-20T15:31:30;4.43;82.62